1992 ALEXANDRA (1991352S08066)


On this page: IBTrACS data - Map and Plots - Positions - Intensities - Original source data

Summary

Start Dec 17
End Dec 29
Basin SI
LMI 105 kt
Sources jtwc_sh
reunion
neumann
In WMO? Yes
Previous storm 1992 ARTHUR (SP)
Previous in basin 1992 GRAHAM (SI)
Concurrent storms 1992 ARTHUR (SP)
1992 ALEXANDRA (SI)
1992 BRYNA (SI)
Next in basin 1992 BRYNA (SI)
Next storm 1992 BRYNA (SI)

top of page IBTrACS Data: File Access

No storm imagery available

top of page Plots:

Map of storm track will not appear if FTP is down
Time series of cyclone Maximum Sustained Wind will not appear if FTP is down
Time series of cyclone Minimum Central Pressure will not appear if FTP is down

top of page Track Data:Position

jtwc_sh reunion neumann
Date Lat Lon Lat Lon Lat Lon
1991-12-17 12:00:00 -7.5 66.0 -7.5 66.0
1991-12-17 18:00:00 -7.9 66.9 -7.9 66.9
1991-12-18 00:00:00 -8.3 67.8 -8.8 68.0 -8.3 67.8
1991-12-18 06:00:00 -8.5 68.8 -9.4 69.0 -8.5 68.8
1991-12-18 12:00:00 -8.7 69.8 -9.7 70.3 -8.7 69.8
1991-12-18 18:00:00 -8.8 70.8 -9.5 71.6 -8.8 70.8
1991-12-19 00:00:00 -8.9 71.8 -9.4 72.7 -8.9 71.8
1991-12-19 06:00:00 -9.0 72.8 -9.4 73.6 -9.0 72.8
1991-12-19 12:00:00 -9.3 73.7 -9.6 74.5 -9.3 73.7
1991-12-19 18:00:00 -9.9 74.5 -10.2 75.1 -9.9 74.5
1991-12-20 00:00:00 -10.7 75.1 -11.0 75.6 -10.7 75.1
1991-12-20 06:00:00 -11.5 75.6 -11.9 76.1 -11.5 75.6
1991-12-20 12:00:00 -12.4 76.1 -12.7 76.4 -12.4 76.1
1991-12-20 18:00:00 -13.4 76.4 -13.5 76.7 -13.4 76.4
1991-12-21 00:00:00 -14.3 76.7 -14.5 76.9 -14.3 76.7
1991-12-21 06:00:00 -15.1 77.0 -15.6 77.2 -15.1 77.0
1991-12-21 12:00:00 -15.8 77.3 -16.4 77.9 -15.8 77.3
1991-12-21 18:00:00 -16.3 77.7 -16.7 78.5 -16.3 77.7
1991-12-22 00:00:00 -16.6 78.2 -16.6 79.1 -16.6 78.2
1991-12-22 06:00:00 -16.7 78.8 -16.2 79.3 -16.7 78.8
1991-12-22 12:00:00 -16.8 79.2 -16.3 79.1 -16.8 79.2
1991-12-22 18:00:00 -16.8 79.4 -16.6 79.4 -16.8 79.4
1991-12-23 00:00:00 -16.9 79.6 -17.0 79.4 -16.9 79.6
1991-12-23 06:00:00 -17.1 79.6 -17.2 79.0 -17.1 79.6
1991-12-23 12:00:00 -17.3 79.3 -17.0 78.6 -17.3 79.3
jtwc_sh reunion neumann
1991-12-23 18:00:00 -17.4 78.8 -16.8 78.1 -17.4 78.8
1991-12-24 00:00:00 -17.5 78.1 -16.7 77.6 -17.5 78.1
1991-12-24 06:00:00 -17.6 77.3 -16.7 77.1 -17.6 77.3
1991-12-24 12:00:00 -17.6 76.4 -16.7 76.6 -17.6 76.4
1991-12-24 18:00:00 -17.6 75.5 -16.8 75.8 -17.6 75.5
1991-12-25 00:00:00 -17.7 74.7 -17.1 74.8 -17.7 74.7
1991-12-25 06:00:00 -17.9 74.0 -17.6 73.8 -17.9 74.0
1991-12-25 12:00:00 -18.2 73.3 -18.2 73.0 -18.2 73.3
1991-12-25 18:00:00 -18.5 72.6 -18.6 72.3 -18.5 72.6
1991-12-26 00:00:00 -18.8 71.9 -18.9 71.5 -18.8 71.9
1991-12-26 06:00:00 -18.9 71.2 -18.9 70.7 -18.9 71.2
1991-12-26 12:00:00 -19.2 70.0
1991-12-26 18:00:00 -19.7 69.7
1991-12-27 00:00:00 -19.8 69.0
1991-12-27 06:00:00 -20.4 68.8
1991-12-27 12:00:00 -21.0 68.8
1991-12-27 18:00:00 -21.5 68.3
1991-12-28 00:00:00 -21.8 67.7
1991-12-28 06:00:00 -21.9 67.2
1991-12-28 12:00:00 -21.9 66.8
1991-12-28 18:00:00 -21.9 66.4
1991-12-29 00:00:00 -21.8 66.0

top of pageTrack Data:Intensity

jtwc_sh reunion neumann
Date Wind Pres Wind Pres Wind Pres
1991-12-17 12:00:00 20. 20.
1991-12-17 18:00:00 20. 20.
1991-12-18 00:00:00 20. 20. 1005. 20.
1991-12-18 06:00:00 20. 20. 1005. 20.
1991-12-18 12:00:00 25. 20. 1002. 25.
1991-12-18 18:00:00 25. 24. 1000. 25.
1991-12-19 00:00:00 25. 24. 1000. 25.
1991-12-19 06:00:00 25. 28. 997. 25.
1991-12-19 12:00:00 30. 28. 997. 30.
1991-12-19 18:00:00 30. 32. 994. 30.
1991-12-20 00:00:00 35. 36. 991. 35.
1991-12-20 06:00:00 40. 43. 985. 40.
1991-12-20 12:00:00 50. 48. 980. 50.
1991-12-20 18:00:00 60. 52. 976. 60.
1991-12-21 00:00:00 75. 56. 972. 75.
1991-12-21 06:00:00 85. 52. 976. 85.
1991-12-21 12:00:00 90. 52. 976. 90.
1991-12-21 18:00:00 95. 48. 980. 95.
1991-12-22 00:00:00 100. 44. 984. 100.
1991-12-22 06:00:00 100. 39. 988. 100.
1991-12-22 12:00:00 105. 36. 991. 105.
1991-12-22 18:00:00 100. 36. 991. 100.
1991-12-23 00:00:00 95. 36. 991. 95.
1991-12-23 06:00:00 85. 36. 991. 85.
1991-12-23 12:00:00 80. 36. 991. 80.
jtwc_sh reunion neumann
1991-12-23 18:00:00 75. 32. 994. 75.
1991-12-24 00:00:00 65. 28. 997. 65.
1991-12-24 06:00:00 60. 24. 1000. 60.
1991-12-24 12:00:00 50. 24. 1000. 50.
1991-12-24 18:00:00 45. 24. 1000. 45.
1991-12-25 00:00:00 40. 24. 1000. 40.
1991-12-25 06:00:00 35. 24. 1000. 35.
1991-12-25 12:00:00 30. 24. 1000. 30.
1991-12-25 18:00:00 30. 24. 1000. 30.
1991-12-26 00:00:00 25. 24. 1000. 25.
1991-12-26 06:00:00 25. 20. 1002. 25.
1991-12-26 12:00:00 20. 1002.
1991-12-26 18:00:00 20. 1005.
1991-12-27 00:00:00 20. 1005.
1991-12-27 06:00:00 20. 1005.
1991-12-27 12:00:00 20. 1005.
1991-12-27 18:00:00
1991-12-28 00:00:00
1991-12-28 06:00:00
1991-12-28 12:00:00
1991-12-28 18:00:00
1991-12-29 00:00:00

top of page Links to source data

Source Source file Format
jtwc_sh bsh091992.txt ATCF
reunion WMO-Best-Tracks.txt:Line=15476:alexandra WMO (old format)
neumann tracks.sh:Storm=930:ALEXANDRA:BSH091992:JTWC HURDAT